createdAt,value
2019-01-12T00:00:23.777Z,8.47
2019-01-12T00:03:10.912Z,8.50
2019-01-12T00:05:57.959Z,9.93
2019-01-12T00:08:45.082Z,9.13
2019-01-12T00:11:32.363Z,9.60
2019-01-12T00:14:19.697Z,8.97
2019-01-12T00:17:06.604Z,10.03
2019-01-12T00:19:53.577Z,9.30
2019-01-12T00:22:40.860Z,10.03
2019-01-12T00:25:28.254Z,11.57
2019-01-12T00:28:15.251Z,8.33
2019-01-12T00:31:02.300Z,9.00
2019-01-12T00:33:49.180Z,7.70
2019-01-12T00:36:35.889Z,8.40
2019-01-12T00:39:23.133Z,8.50
2019-01-12T00:42:10.527Z,9.20
2019-01-12T00:44:57.810Z,8.83
2019-01-12T00:47:44.922Z,8.77
2019-01-12T00:50:32.278Z,8.20
2019-01-12T00:53:18.921Z,8.30
2019-01-12T00:56:05.941Z,7.67
2019-01-12T00:58:53.421Z,8.03
2019-01-12T01:01:40.841Z,8.00
2019-01-12T01:04:28.152Z,8.10
2019-01-12T01:07:16.349Z,7.43
2019-01-12T01:10:04.986Z,8.60
2019-01-12T01:12:52.149Z,7.27
2019-01-12T01:15:39.224Z,8.13
2019-01-12T01:18:26.426Z,9.60
2019-01-12T01:21:13.568Z,10.53
2019-01-12T01:24:00.639Z,9.37
2019-01-12T01:26:47.780Z,8.27
2019-01-12T01:29:35.101Z,8.77
2019-01-12T01:32:22.081Z,8.63
2019-01-12T01:35:09.149Z,8.03
2019-01-12T01:37:56.223Z,6.80
2019-01-12T01:40:43.497Z,7.03
2019-01-12T01:43:30.468Z,6.87
2019-01-12T01:46:17.709Z,6.97
2019-01-12T01:49:04.858Z,7.17
2019-01-12T01:51:51.733Z,6.80
2019-01-12T01:54:39.173Z,7.40
2019-01-12T01:57:26.300Z,7.23
2019-01-12T02:00:15.692Z,7.50
2019-01-12T02:03:02.737Z,7.63
2019-01-12T02:05:49.823Z,7.20
2019-01-12T02:08:36.962Z,8.80
2019-01-12T02:11:24.231Z,7.43
2019-01-12T02:14:10.911Z,8.30
2019-01-12T02:16:57.662Z,7.43
2019-01-12T02:19:44.961Z,7.70
2019-01-12T02:22:32.160Z,7.10
2019-01-12T02:25:19.389Z,9.10
2019-01-12T02:28:06.404Z,7.80
2019-01-12T02:30:53.594Z,8.20
2019-01-12T02:33:41.013Z,7.83
2019-01-12T02:36:28.113Z,8.60
2019-01-12T02:39:15.101Z,8.27
2019-01-12T02:42:02.366Z,8.13
2019-01-12T02:44:49.646Z,10.07
2019-01-12T02:47:36.667Z,8.87
2019-01-12T02:50:23.354Z,10.37
2019-01-12T02:53:10.362Z,8.87
2019-01-12T02:55:57.584Z,8.13
2019-01-12T02:58:44.253Z,7.93
2019-01-12T03:01:31.428Z,7.93
2019-01-12T03:04:18.646Z,8.53
2019-01-12T03:07:05.451Z,8.53
2019-01-12T03:09:52.215Z,9.70
2019-01-12T03:12:39.700Z,8.17
2019-01-12T03:15:26.752Z,8.13
2019-01-12T03:18:13.979Z,8.10
2019-01-12T03:21:01.394Z,8.13
2019-01-12T03:23:48.409Z,8.73
2019-01-12T03:26:35.308Z,8.07
2019-01-12T03:29:22.613Z,8.73
2019-01-12T03:32:09.957Z,8.50
2019-01-12T03:34:57.198Z,8.37
2019-01-12T03:37:44.516Z,7.87
2019-01-12T03:40:31.611Z,8.87
2019-01-12T03:43:18.700Z,8.07
2019-01-12T03:46:05.969Z,11.57
2019-01-12T03:48:53.477Z,10.03
2019-01-12T03:51:40.712Z,8.10
2019-01-12T03:54:27.412Z,8.77
2019-01-12T03:57:14.495Z,7.40
2019-01-12T04:00:01.723Z,7.80
2019-01-12T04:02:49.203Z,7.60
2019-01-12T04:05:36.060Z,8.20
2019-01-12T04:08:23.140Z,7.10
2019-01-12T04:11:10.328Z,9.37
2019-01-12T04:13:57.510Z,7.27
2019-01-12T04:16:44.230Z,7.03
2019-01-12T04:19:31.165Z,6.50
2019-01-12T04:22:18.357Z,7.47
2019-01-12T04:25:05.937Z,8.07
2019-01-12T04:27:52.917Z,7.43
2019-01-12T04:30:39.904Z,7.37
2019-01-12T04:33:26.992Z,7.63
2019-01-12T04:36:14.069Z,6.87
2019-01-12T04:39:01.322Z,6.97
2019-01-12T04:41:48.006Z,7.43
2019-01-12T04:44:35.324Z,7.90
2019-01-12T04:47:22.500Z,6.53
2019-01-12T04:50:12.076Z,7.50
2019-01-12T04:52:59.076Z,8.37
2019-01-12T04:55:46.091Z,7.70
2019-01-12T04:58:32.783Z,8.03
2019-01-12T05:01:20.016Z,8.37
2019-01-12T05:04:07.391Z,8.00
2019-01-12T05:06:54.755Z,8.00
2019-01-12T05:09:41.936Z,8.03
2019-01-12T05:12:29.177Z,7.10
2019-01-12T05:15:16.812Z,7.80
2019-01-12T05:18:03.797Z,8.10
2019-01-12T05:20:51.160Z,8.57
2019-01-12T05:23:37.876Z,7.40
2019-01-12T05:26:25.096Z,8.13
2019-01-12T05:29:12.060Z,8.23
2019-01-12T05:31:58.932Z,7.90
2019-01-12T05:34:45.815Z,7.20
2019-01-12T05:37:33.111Z,8.63
2019-01-12T05:40:20.457Z,8.70
2019-01-12T05:43:07.752Z,7.77
2019-01-12T05:45:54.698Z,7.13
2019-01-12T05:48:41.401Z,6.93
2019-01-12T05:51:28.415Z,7.47
2019-01-12T05:54:15.065Z,7.13
2019-01-12T05:57:02.365Z,8.37
2019-01-12T05:59:49.625Z,6.73
2019-01-12T06:02:36.348Z,7.53
2019-01-12T06:05:23.597Z,6.17
2019-01-12T06:08:10.855Z,8.43
2019-01-12T06:10:57.790Z,8.03
2019-01-12T06:13:44.707Z,7.17
2019-01-12T06:16:32.212Z,7.37
2019-01-12T06:19:19.257Z,7.50
2019-01-12T06:22:06.489Z,7.83
2019-01-12T06:24:53.664Z,6.50
2019-01-12T06:27:40.771Z,7.43
2019-01-12T06:30:28.088Z,6.53
2019-01-12T06:33:15.088Z,6.27
2019-01-12T06:36:02.424Z,5.73
2019-01-12T06:38:49.255Z,6.73
2019-01-12T06:41:36.528Z,6.67
2019-01-12T06:44:23.589Z,8.03
2019-01-12T06:47:10.275Z,7.57
2019-01-12T06:49:57.792Z,6.77
2019-01-12T06:52:45.085Z,6.90
2019-01-12T06:55:31.780Z,7.73
2019-01-12T06:58:18.492Z,7.77
2019-01-12T07:01:05.518Z,7.83
2019-01-12T07:03:52.756Z,8.93
2019-01-12T07:06:39.675Z,8.70
2019-01-12T07:09:26.748Z,9.93
2019-01-12T07:12:13.995Z,11.40
2019-01-12T07:15:01.263Z,10.80
2019-01-12T07:17:48.237Z,11.17
2019-01-12T07:20:35.019Z,9.13
2019-01-12T07:23:22.255Z,8.20
2019-01-12T07:26:09.500Z,8.53
2019-01-12T07:28:56.739Z,8.60
2019-01-12T07:31:43.441Z,9.20
2019-01-12T07:34:30.665Z,8.43
2019-01-12T07:37:17.378Z,9.83
2019-01-12T07:40:06.021Z,12.37
2019-01-12T07:42:53.159Z,10.80
2019-01-12T07:45:40.382Z,11.03
2019-01-12T07:48:27.637Z,9.50
2019-01-12T07:51:14.634Z,12.53
2019-01-12T07:54:01.820Z,13.17
2019-01-12T07:56:49.260Z,9.00
2019-01-12T07:59:36.536Z,10.37
2019-01-12T08:02:23.289Z,11.80
2019-01-12T08:05:10.359Z,9.00
2019-01-12T08:07:57.492Z,8.53
2019-01-12T08:10:44.240Z,9.30
2019-01-12T08:13:31.534Z,10.97
2019-01-12T08:16:18.776Z,12.17
2019-01-12T08:19:05.957Z,13.87
2019-01-12T08:21:53.196Z,11.20
2019-01-12T08:24:40.484Z,12.27
2019-01-12T08:27:27.626Z,11.27
2019-01-12T08:30:16.580Z,8.57
2019-01-12T08:33:03.285Z,8.77
2019-01-12T08:35:50.400Z,8.77
2019-01-12T08:38:37.312Z,8.93
2019-01-12T08:41:24.323Z,11.63
2019-01-12T08:44:11.367Z,10.30
2019-01-12T08:46:58.298Z,9.47
2019-01-12T08:49:45.530Z,9.40
2019-01-12T08:52:32.756Z,9.23
2019-01-12T08:55:19.421Z,10.57
2019-01-12T08:58:06.693Z,8.63
2019-01-12T09:00:53.696Z,9.13
2019-01-12T09:03:40.801Z,8.73
2019-01-12T09:06:27.724Z,8.70
2019-01-12T09:09:14.681Z,11.43
2019-01-12T09:12:01.457Z,8.47
2019-01-12T09:14:48.561Z,8.67
2019-01-12T09:17:35.792Z,8.53
2019-01-12T09:20:22.828Z,10.37
2019-01-12T09:23:09.903Z,10.87
2019-01-12T09:25:56.885Z,8.47
2019-01-12T09:28:44.267Z,8.53
2019-01-12T09:31:31.650Z,14.80
2019-01-12T09:34:18.860Z,15.57
2019-01-12T09:37:05.888Z,8.87
2019-01-12T09:39:53.289Z,9.30
2019-01-12T09:42:40.769Z,8.07
2019-01-12T09:45:27.836Z,8.90
2019-01-12T09:48:15.022Z,9.87
2019-01-12T09:51:02.247Z,8.33
2019-01-12T09:53:49.329Z,13.60
2019-01-12T09:56:36.648Z,13.60
2019-01-12T09:59:23.332Z,13.17
2019-01-12T10:02:10.535Z,15.17
2019-01-12T10:04:57.843Z,11.20
2019-01-12T10:07:45.241Z,9.07
2019-01-12T10:10:31.943Z,9.33
2019-01-12T10:13:19.161Z,11.50
2019-01-12T10:16:06.348Z,12.60
2019-01-12T10:18:53.472Z,8.73
2019-01-12T10:21:40.519Z,9.60
2019-01-12T10:24:27.632Z,9.70
2019-01-12T10:27:15.145Z,9.07
2019-01-12T10:30:02.037Z,6.07
2019-01-12T10:32:49.203Z,5.60
2019-01-12T10:35:36.597Z,4.90
2019-01-12T10:38:23.534Z,5.50
2019-01-12T10:41:10.622Z,5.57
2019-01-12T10:43:57.736Z,5.17
2019-01-12T10:46:45.041Z,5.23
2019-01-12T10:49:32.371Z,5.77
2019-01-12T10:52:19.182Z,5.40
2019-01-12T10:55:06.921Z,5.63
2019-01-12T10:57:54.271Z,6.43
2019-01-12T11:00:41.396Z,5.50
2019-01-12T11:03:28.905Z,7.00
2019-01-12T11:06:16.246Z,6.10
2019-01-12T11:09:04.829Z,6.10
2019-01-12T11:11:51.965Z,6.00
2019-01-12T11:14:39.258Z,6.00
2019-01-12T11:17:26.633Z,5.67
2019-01-12T11:20:13.776Z,5.43
2019-01-12T11:23:01.064Z,5.40
2019-01-12T11:25:48.302Z,5.27
2019-01-12T11:28:35.506Z,5.47
2019-01-12T11:31:22.579Z,5.47
2019-01-12T11:34:09.253Z,6.77
2019-01-12T11:36:56.269Z,5.10
2019-01-12T11:39:43.249Z,5.43
2019-01-12T11:42:30.466Z,5.30
2019-01-12T11:45:19.676Z,6.30
2019-01-12T11:48:06.946Z,5.97
2019-01-12T11:50:55.413Z,6.50
2019-01-12T11:53:42.376Z,5.20
2019-01-12T11:56:29.622Z,5.20
2019-01-12T11:59:16.860Z,4.87
2019-01-12T12:02:04.165Z,7.47
2019-01-12T12:04:51.463Z,8.00
2019-01-12T12:07:38.498Z,6.33
2019-01-12T12:10:25.642Z,4.23
2019-01-12T12:13:12.798Z,4.13
2019-01-12T12:15:59.986Z,4.50
2019-01-12T12:18:47.090Z,4.33
2019-01-12T12:21:34.406Z,4.33
2019-01-12T12:24:21.672Z,4.20
2019-01-12T12:27:08.687Z,4.03
2019-01-12T12:29:56.145Z,3.90
2019-01-12T12:32:43.433Z,3.73
2019-01-12T12:35:30.282Z,4.30
2019-01-12T12:38:17.279Z,3.47
2019-01-12T12:41:04.502Z,3.70
2019-01-12T12:43:51.687Z,3.37
2019-01-12T12:46:38.936Z,2.50
2019-01-12T12:49:25.861Z,2.83
2019-01-12T12:52:12.817Z,2.40
2019-01-12T12:54:59.638Z,2.43
2019-01-12T12:57:46.728Z,2.63
2019-01-12T13:00:33.927Z,2.93
2019-01-12T13:03:20.620Z,3.10
2019-01-12T13:06:08.213Z,3.53
2019-01-12T13:08:55.016Z,2.70
2019-01-12T13:11:42.071Z,3.30
2019-01-12T13:14:29.056Z,3.00
2019-01-12T13:17:16.049Z,3.37
2019-01-12T13:20:02.971Z,2.60
2019-01-12T13:22:50.144Z,2.37
2019-01-12T13:25:36.928Z,2.47
2019-01-12T13:28:23.935Z,2.80
2019-01-12T13:31:11.104Z,3.37
2019-01-12T13:33:57.880Z,3.30
2019-01-12T13:36:44.924Z,2.90
2019-01-12T13:39:32.485Z,3.10
2019-01-12T13:42:19.968Z,3.10
2019-01-12T13:45:10.214Z,3.10
2019-01-12T13:47:56.922Z,2.70
2019-01-12T13:50:43.996Z,4.40
2019-01-12T13:53:31.237Z,3.57
2019-01-12T13:56:18.590Z,5.50
2019-01-12T13:59:05.702Z,4.07
2019-01-12T14:01:52.704Z,4.80
2019-01-12T14:04:40.070Z,5.53
2019-01-12T14:07:27.252Z,5.57
2019-01-12T14:10:17.336Z,5.73
2019-01-12T14:13:04.724Z,4.47
2019-01-12T14:15:51.697Z,5.10
2019-01-12T14:18:38.945Z,6.87
2019-01-12T14:21:26.024Z,6.33
2019-01-12T14:24:13.068Z,4.90
2019-01-12T14:27:00.314Z,4.77
2019-01-12T14:29:47.517Z,4.90
2019-01-12T14:32:34.817Z,5.37
2019-01-12T14:35:22.245Z,5.20
2019-01-12T14:38:09.329Z,4.47
2019-01-12T14:40:56.612Z,4.43
2019-01-12T14:43:43.638Z,4.90
2019-01-12T14:46:30.812Z,3.93
2019-01-12T14:49:17.862Z,3.90
2019-01-12T14:52:05.357Z,4.33
2019-01-12T14:54:52.336Z,4.83
2019-01-12T14:57:39.696Z,3.70
2019-01-12T15:00:27.773Z,6.00
2019-01-12T15:03:15.039Z,4.13
2019-01-12T15:06:02.034Z,4.87
2019-01-12T15:08:49.363Z,5.10
2019-01-12T15:11:36.548Z,4.77
2019-01-12T15:14:23.513Z,5.63
2019-01-12T15:17:10.239Z,5.30
2019-01-12T15:19:57.364Z,5.90
2019-01-12T15:22:44.440Z,4.33
2019-01-12T15:25:31.757Z,4.87
2019-01-12T15:28:19.245Z,5.03
2019-01-12T15:31:06.294Z,5.10
2019-01-12T15:33:53.416Z,5.37
2019-01-12T15:36:40.451Z,5.83
2019-01-12T15:39:27.564Z,5.47
2019-01-12T15:42:14.653Z,5.07
2019-01-12T15:45:01.970Z,5.03
2019-01-12T15:47:49.593Z,4.47
2019-01-12T15:50:36.842Z,4.70
2019-01-12T15:53:23.789Z,4.40
2019-01-12T15:56:10.887Z,4.83
2019-01-12T15:58:58.183Z,4.10
2019-01-12T16:01:45.466Z,4.33
2019-01-12T16:04:32.419Z,3.47
2019-01-12T16:07:19.507Z,3.47
2019-01-12T16:10:09.437Z,3.33
2019-01-12T16:12:56.832Z,9.33
2019-01-12T16:15:43.858Z,5.50
2019-01-12T16:18:30.921Z,4.50
2019-01-12T16:21:17.638Z,3.47
2019-01-12T16:24:04.692Z,2.97
2019-01-12T16:26:51.892Z,3.30
2019-01-12T16:29:38.783Z,2.87
2019-01-12T16:32:25.872Z,3.17
2019-01-12T16:35:13.343Z,3.00
2019-01-12T16:38:00.490Z,3.10
2019-01-12T16:40:47.412Z,3.00
2019-01-12T16:43:34.796Z,3.10
2019-01-12T16:46:21.924Z,3.20
2019-01-12T16:49:08.769Z,2.90
2019-01-12T16:51:55.857Z,2.80
2019-01-12T16:54:42.568Z,2.63
2019-01-12T16:57:29.618Z,2.57
2019-01-12T17:00:25.409Z,2.10
2019-01-12T17:03:12.331Z,2.57
2019-01-12T17:05:59.669Z,2.40
2019-01-12T17:08:46.900Z,2.50
2019-01-12T17:11:34.086Z,2.43
2019-01-12T17:14:20.964Z,3.33
2019-01-12T17:17:08.467Z,2.50
2019-01-12T17:19:55.453Z,2.87
2019-01-12T17:22:42.382Z,3.03
2019-01-12T17:25:29.786Z,3.30
2019-01-12T17:28:17.025Z,2.80
2019-01-12T17:31:04.121Z,3.90
2019-01-12T17:33:50.753Z,2.87
2019-01-12T17:36:37.603Z,3.30
2019-01-12T17:39:24.776Z,3.23
2019-01-12T17:42:11.771Z,2.93
2019-01-12T17:44:58.900Z,2.73
2019-01-12T17:47:46.002Z,2.57
2019-01-12T17:50:32.927Z,3.10
2019-01-12T17:53:20.270Z,3.30
2019-01-12T17:56:07.569Z,2.93
2019-01-12T17:58:54.837Z,3.00
2019-01-12T18:01:42.409Z,3.20
2019-01-12T18:04:29.306Z,2.93
2019-01-12T18:07:16.588Z,2.97
2019-01-12T18:10:05.760Z,2.80
2019-01-12T18:12:52.921Z,3.50
2019-01-12T18:15:39.878Z,3.20
2019-01-12T18:18:27.274Z,2.93
2019-01-12T18:21:14.327Z,3.93
2019-01-12T18:24:01.371Z,2.97
2019-01-12T18:26:48.349Z,2.60
2019-01-12T18:29:35.574Z,3.10
2019-01-12T18:32:22.724Z,2.77
2019-01-12T18:35:09.920Z,1.73
2019-01-12T18:37:56.887Z,2.83
2019-01-12T18:40:45.998Z,2.40
2019-01-12T18:43:33.283Z,3.10
2019-01-12T18:46:20.214Z,2.30
2019-01-12T18:49:07.287Z,2.27
2019-01-12T18:51:54.105Z,2.60
2019-01-12T18:54:41.294Z,2.70
2019-01-12T18:57:28.433Z,2.60
2019-01-12T19:00:18.840Z,2.80
2019-01-12T19:03:05.998Z,3.07
2019-01-12T19:05:52.924Z,3.50
2019-01-12T19:08:40.174Z,3.17
2019-01-12T19:11:27.370Z,3.20
2019-01-12T19:14:14.656Z,3.60
2019-01-12T19:17:01.343Z,4.20
2019-01-12T19:19:48.814Z,3.37
2019-01-12T19:22:36.119Z,3.40
2019-01-12T19:25:23.324Z,3.60
2019-01-12T19:28:10.021Z,3.60
2019-01-12T19:30:57.089Z,3.30
2019-01-12T19:33:44.133Z,3.13
2019-01-12T19:36:31.139Z,3.30
2019-01-12T19:39:17.809Z,2.83
2019-01-12T19:42:05.181Z,3.00
2019-01-12T19:44:52.192Z,2.40
2019-01-12T19:47:39.719Z,1.93
2019-01-12T19:50:26.793Z,2.50
2019-01-12T19:53:13.967Z,2.40
2019-01-12T19:56:00.945Z,2.00
2019-01-12T19:58:47.872Z,1.67
2019-01-12T20:01:34.870Z,1.80
2019-01-12T20:04:22.135Z,1.60
2019-01-12T20:07:09.418Z,1.60
2019-01-12T20:09:56.124Z,1.50
2019-01-12T20:12:43.396Z,1.70
2019-01-12T20:15:30.793Z,2.10
2019-01-12T20:18:17.754Z,1.73
2019-01-12T20:21:04.862Z,3.10
2019-01-12T20:23:52.155Z,1.40
2019-01-12T20:26:39.142Z,1.87
2019-01-12T20:29:25.824Z,1.87
2019-01-12T20:32:21.702Z,1.30
2019-01-12T20:35:11.934Z,1.30
2019-01-12T20:38:07.554Z,1.20
2019-01-12T20:41:00.871Z,1.27
2019-01-12T20:44:12.079Z,0.80
2019-01-12T20:47:29.495Z,0.87
2019-01-12T20:50:19.604Z,0.63
2019-01-12T20:53:18.819Z,1.27
2019-01-12T20:56:09.168Z,0.70
2019-01-12T20:59:02.081Z,0.70
2019-01-12T21:01:59.765Z,0.60
2019-01-12T21:04:52.604Z,0.57
2019-01-12T21:07:57.896Z,0.50
2019-01-12T21:11:02.819Z,0.80
2019-01-12T21:14:04.906Z,0.57
2019-01-12T21:16:52.053Z,0.70
2019-01-12T21:19:39.229Z,0.90
2019-01-12T21:22:26.534Z,0.60
2019-01-12T21:25:13.898Z,0.83
2019-01-12T21:28:00.822Z,1.00
2019-01-12T21:30:47.914Z,0.90
2019-01-12T21:33:35.353Z,0.80
2019-01-12T21:36:22.156Z,0.77
2019-01-12T21:39:09.420Z,0.80
2019-01-12T21:41:56.383Z,0.83
2019-01-12T21:44:43.644Z,0.70
2019-01-12T21:47:30.854Z,0.63
2019-01-12T21:50:18.224Z,0.70
2019-01-12T21:53:05.517Z,0.77
2019-01-12T21:55:53.245Z,0.40
2019-01-12T21:58:40.075Z,1.17
2019-01-12T22:01:26.811Z,0.83
2019-01-12T22:04:14.049Z,0.77
2019-01-12T22:07:01.301Z,0.60
2019-01-12T22:09:48.275Z,0.53
2019-01-12T22:12:35.348Z,0.50
2019-01-12T22:15:22.326Z,0.60
2019-01-12T22:18:09.749Z,1.00
2019-01-12T22:20:56.970Z,0.50
2019-01-12T22:23:44.293Z,0.70
2019-01-12T22:26:31.417Z,1.03
2019-01-12T22:29:18.313Z,0.50
2019-01-12T22:32:05.477Z,0.77
2019-01-12T22:34:52.448Z,0.60
2019-01-12T22:37:39.144Z,0.53
2019-01-12T22:40:26.131Z,0.70
2019-01-12T22:43:13.136Z,0.60
2019-01-12T22:46:00.335Z,0.70
2019-01-12T22:48:47.536Z,0.67
2019-01-12T22:51:34.566Z,0.80
2019-01-12T22:54:21.969Z,0.80
2019-01-12T22:57:08.665Z,0.70
2019-01-12T22:59:57.133Z,0.60
2019-01-12T23:02:44.130Z,0.80
2019-01-12T23:05:31.089Z,0.80
2019-01-12T23:08:18.160Z,0.57
2019-01-12T23:11:04.984Z,0.63
2019-01-12T23:13:52.160Z,0.53
2019-01-12T23:16:39.484Z,0.60
2019-01-12T23:19:26.668Z,0.70
2019-01-12T23:22:14.058Z,0.90
2019-01-12T23:25:01.053Z,0.57
2019-01-12T23:27:48.113Z,0.77
2019-01-12T23:30:35.160Z,0.73
2019-01-12T23:33:21.997Z,0.70
2019-01-12T23:36:09.263Z,0.93
2019-01-12T23:38:56.285Z,1.00
2019-01-12T23:41:43.300Z,1.07
2019-01-12T23:44:30.595Z,1.20
2019-01-12T23:47:17.847Z,1.87
2019-01-12T23:50:10.548Z,1.20
2019-01-12T23:52:57.705Z,1.37
2019-01-12T23:55:44.963Z,2.37
2019-01-12T23:58:32.145Z,1.63
